首页
METAR-TAF:

METAR-TAF

机场 :

靜岡機場

靜岡, 日本

纬度: 34-47-46N, 经度: 138-11-22E, 海拔: 132米

当前天气观测

该预报发布于1小时和4分钟前的23:00 UTC
风速7节,风向西北
温度 8°C
湿度 76%
气压 1018 hPa
能见度10公里或以上
少量云层高于2000英尺
多云层高于3000英尺

METAR: RJNS 122300Z 31007KT 9999 FEW020 BKN030 08/04 Q1018

时间: 09:04 (00:04 UTC)

预报

该预报发布于58分钟前的23:06 UTC
预报有效从13日的 00点(UTC)到 14日的 06点(UTC)
风速8节,风向西转西北
能见度10公里或以上
少量云层高于2000英尺
多云层高于4000英尺
成为
从 13日的 00点(UTC)到 13日的 02点(UTC)
风速10节,风向南转南东
成为
从 13日的 06点(UTC)到 13日的 08点(UTC)
风速14节,风向西

TAF: RJNS 122306Z 1300/1406 30008KT 9999 FEW020 BKN040 BECMG 1300/1302 16010KT BECMG 1306/1308 27014KT

超过4000个机场的气象观测和天气预报(METAR&TAF报告)。

可查询的气象台以黄色和红色小点在地图上表示。

将鼠标移到小点上方,可查看气象台名称。

然后点击查看天气观测和预报。

如需切换地图:点击带黑十字的绿色按钮放大地图;点击带横线的绿色按钮缩小地图;或者点击绿色箭头查看邻近地区的地图。


METAR-TAF: